Time,TemperatureF,DewpointF,PressureIn,WindDirection,WindDirectionDegrees,WindSpeedMPH,WindSpeedGustMPH,Humidity,HourlyPrecipIn,Conditions,Clouds,dailyrainin,SoftwareType,DateUTC
2013-10-29 00:01:00,54.0,53.1,28.14,North,0,0.0,0.0,97,0.00,,---,0.00,VWS V14.01,2013-10-29 04:01:00,
2013-10-29 00:02:00,54.0,53.1,28.14,North,0,0.0,0.0,97,0.00,,---,0.00,VWS V14.01,2013-10-29 04:02:00,
2013-10-29 00:07:00,54.0,53.1,28.11,North,0,0.0,0.0,97,0.00,,---,0.00,VWS V14.01,2013-10-29 04:07:00,
2013-10-29 00:12:00,54.1,53.3,28.11,North,0,0.0,0.0,97,0.00,,---,0.00,VWS V14.01,2013-10-29 04:12:00,
2013-10-29 00:17:00,54.1,53.3,28.11,North,0,0.0,0.0,97,0.00,,---,0.00,VWS V14.01,2013-10-29 04:17:00,
2013-10-29 00:22:00,54.3,53.5,28.11,North,0,0.0,0.0,97,0.00,,---,0.00,VWS V14.01,2013-10-29 04:22:00,
2013-10-29 00:27:00,54.3,53.8,28.11,North,0,0.0,0.0,98,0.00,,---,0.00,VWS V14.01,2013-10-29 04:27:00,
2013-10-29 00:32:00,54.3,53.8,28.11,North,0,0.0,0.0,98,0.00,,---,0.00,VWS V14.01,2013-10-29 04:32:00,
2013-10-29 00:37:00,54.3,53.8,28.11,North,0,0.0,0.0,98,0.00,,---,0.00,VWS V14.01,2013-10-29 04:37:00,
2013-10-29 00:42:00,54.5,54.0,28.11,North,0,0.0,0.0,98,0.00,,---,0.00,VWS V14.01,2013-10-29 04:42:00,
2013-10-29 00:47:00,54.5,54.0,28.11,North,0,0.0,0.0,98,0.00,,---,0.00,VWS V14.01,2013-10-29 04:47:00,
2013-10-29 00:52:00,54.5,54.0,28.11,North,0,0.0,0.0,98,0.00,,---,0.00,VWS V14.01,2013-10-29 04:52:00,
2013-10-29 00:57:00,54.5,54.0,28.11,North,0,0.0,0.0,98,0.00,,---,0.00,VWS V14.01,2013-10-29 04:57:00,
2013-10-29 01:03:00,54.5,54.0,28.11,North,0,0.0,0.0,98,0.00,,---,0.00,VWS V14.01,2013-10-29 05:03:00,
2013-10-29 01:08:00,54.5,54.0,28.11,North,0,0.0,0.0,98,0.00,,---,0.00,VWS V14.01,2013-10-29 05:08:00,
2013-10-29 01:13:00,54.5,54.0,28.11,North,0,0.0,0.0,98,0.00,,---,0.00,VWS V14.01,2013-10-29 05:13:00,
2013-10-29 01:18:00,54.5,54.0,28.11,North,0,0.0,0.0,98,0.00,,---,0.00,VWS V14.01,2013-10-29 05:18:00,
2013-10-29 01:23:00,54.5,54.0,28.11,North,0,0.0,0.0,98,0.00,,---,0.00,VWS V14.01,2013-10-29 05:23:00,
2013-10-29 01:28:00,54.5,54.0,28.11,North,0,0.0,0.0,98,0.00,,---,0.00,VWS V14.01,2013-10-29 05:28:00,
2013-10-29 01:33:00,54.3,53.8,28.11,North,0,0.0,0.0,98,0.00,,---,0.00,VWS V14.01,2013-10-29 05:33:00,
2013-10-29 01:38:00,54.3,53.8,28.11,North,0,0.0,0.0,98,0.00,,---,0.00,VWS V14.01,2013-10-29 05:38:00,
2013-10-29 01:43:00,54.3,53.5,28.11,North,0,0.0,0.0,97,0.00,,---,0.00,VWS V14.01,2013-10-29 05:43:00,
2013-10-29 01:48:00,54.0,53.1,28.11,North,0,0.0,0.0,97,0.00,,---,0.00,VWS V14.01,2013-10-29 05:48:00,
2013-10-29 01:53:00,53.8,53.0,28.11,North,0,0.0,0.0,97,0.00,,---,0.00,VWS V14.01,2013-10-29 05:53:00,
2013-10-29 01:58:00,53.6,52.8,28.11,North,0,0.0,0.0,97,0.00,,---,0.00,VWS V14.01,2013-10-29 05:58:00,
2013-10-29 02:03:00,53.4,52.9,28.11,North,0,0.0,0.0,98,0.00,,---,0.00,VWS V14.01,2013-10-29 06:03:00,
2013-10-29 02:08:00,53.2,52.4,28.11,North,0,0.0,0.0,97,0.00,,---,0.00,VWS V14.01,2013-10-29 06:08:00,
2013-10-29 02:13:00,53.2,52.4,28.11,North,0,0.0,0.0,97,0.00,,---,0.00,VWS V14.01,2013-10-29 06:13:00,
2013-10-29 02:18:00,53.1,52.5,28.11,North,0,0.0,0.0,98,0.00,,---,0.00,VWS V14.01,2013-10-29 06:18:00,
2013-10-29 02:23:00,53.1,52.5,28.14,North,0,0.0,0.0,98,0.00,,---,0.00,VWS V14.01,2013-10-29 06:23:00,
2013-10-29 02:28:00,53.1,52.5,28.14,North,0,0.0,0.0,98,0.00,,---,0.00,VWS V14.01,2013-10-29 06:28:00,
2013-10-29 02:33:00,53.1,52.5,28.14,North,0,0.0,0.0,98,0.00,,---,0.00,VWS V14.01,2013-10-29 06:33:00,
2013-10-29 02:38:00,53.1,52.5,28.14,North,0,0.0,0.0,98,0.00,,---,0.00,VWS V14.01,2013-10-29 06:38:00,
2013-10-29 02:43:00,53.1,52.5,28.14,North,0,0.0,0.0,98,0.00,,---,0.00,VWS V14.01,2013-10-29 06:43:00,
2013-10-29 02:48:00,53.1,52.5,28.14,North,0,0.0,0.0,98,0.00,,---,0.00,VWS V14.01,2013-10-29 06:48:00,
2013-10-29 02:53:00,53.1,52.5,28.14,North,0,0.0,0.0,98,0.00,,---,0.00,VWS V14.01,2013-10-29 06:53:00,
2013-10-29 02:58:00,53.1,52.5,28.14,North,0,0.0,0.0,98,0.00,,---,0.00,VWS V14.01,2013-10-29 06:58:00,
2013-10-29 03:03:00,53.2,52.7,28.14,North,0,0.0,0.0,98,0.00,,---,0.00,VWS V14.01,2013-10-29 07:03:00,
2013-10-29 03:08:00,53.2,52.7,28.11,North,0,0.0,0.0,98,0.00,,---,0.00,VWS V14.01,2013-10-29 07:08:00,
2013-10-29 03:13:00,53.2,52.7,28.11,North,0,0.0,0.0,98,0.00,,---,0.00,VWS V14.01,2013-10-29 07:13:00,
2013-10-29 03:18:00,53.4,52.9,28.11,North,0,0.0,0.0,98,0.00,,---,0.00,VWS V14.01,2013-10-29 07:18:00,
2013-10-29 03:23:00,53.4,52.9,28.14,North,0,0.0,0.0,98,0.00,,---,0.00,VWS V14.01,2013-10-29 07:23:00,
2013-10-29 03:28:00,53.4,52.9,28.14,North,0,0.0,0.0,98,0.00,,---,0.00,VWS V14.01,2013-10-29 07:28:00,
2013-10-29 03:33:00,53.4,52.9,28.14,North,0,0.0,0.0,98,0.00,,---,0.00,VWS V14.01,2013-10-29 07:33:00,
2013-10-29 03:39:00,53.4,52.9,28.14,North,0,0.0,0.0,98,0.00,,---,0.00,VWS V14.01,2013-10-29 07:39:00,
2013-10-29 03:44:00,53.4,52.9,28.14,North,0,0.0,0.0,98,0.00,,---,0.00,VWS V14.01,2013-10-29 07:44:00,
2013-10-29 03:49:00,53.4,52.9,28.14,North,0,0.0,0.0,98,0.00,,---,0.00,VWS V14.01,2013-10-29 07:49:00,
2013-10-29 03:54:00,53.6,53.0,28.14,North,0,0.0,0.0,98,0.00,,---,0.00,VWS V14.01,2013-10-29 07:54:00,
2013-10-29 03:59:00,53.8,53.2,28.14,North,0,0.0,0.0,98,0.00,,---,0.00,VWS V14.01,2013-10-29 07:59:00,
2013-10-29 04:04:00,53.8,53.2,28.14,North,0,0.0,0.0,98,0.00,,---,0.00,VWS V14.01,2013-10-29 08:04:00,
2013-10-29 04:09:00,54.0,53.4,28.11,North,0,0.0,0.0,98,0.00,,---,0.00,VWS V14.01,2013-10-29 08:09:00,
2013-10-29 04:14:00,54.0,53.4,28.11,North,0,0.0,0.0,98,0.00,,---,0.00,VWS V14.01,2013-10-29 08:14:00,
2013-10-29 04:19:00,54.0,53.4,28.11,North,0,0.0,0.0,98,0.00,,---,0.00,VWS V14.01,2013-10-29 08:19:00,
2013-10-29 04:24:00,54.0,53.4,28.14,North,0,0.0,0.0,98,0.00,,---,0.00,VWS V14.01,2013-10-29 08:24:00,
2013-10-29 04:29:00,54.0,53.4,28.14,North,0,0.0,0.0,98,0.00,,---,0.00,VWS V14.01,2013-10-29 08:29:00,
2013-10-29 04:34:00,54.0,53.4,28.14,North,0,0.0,0.0,98,0.00,,---,0.00,VWS V14.01,2013-10-29 08:34:00,
2013-10-29 04:39:00,54.0,53.4,28.11,North,0,0.0,0.0,98,0.00,,---,0.00,VWS V14.01,2013-10-29 08:39:00,
2013-10-29 04:44:00,54.0,53.4,28.11,North,0,0.0,0.0,98,0.00,,---,0.00,VWS V14.01,2013-10-29 08:44:00,
2013-10-29 04:49:00,54.0,53.4,28.11,North,0,0.0,0.0,98,0.00,,---,0.00,VWS V14.01,2013-10-29 08:49:00,
2013-10-29 04:54:00,53.8,53.2,28.14,North,0,0.0,0.0,98,0.00,,---,0.00,VWS V14.01,2013-10-29 08:54:00,
2013-10-29 04:59:00,53.8,53.2,28.14,North,0,0.0,0.0,98,0.00,,---,0.00,VWS V14.01,2013-10-29 08:59:00,
2013-10-29 05:04:00,54.0,53.4,28.14,North,0,0.0,0.0,98,0.00,,---,0.00,VWS V14.01,2013-10-29 09:04:00,
2013-10-29 05:09:00,54.0,53.4,28.14,North,0,0.0,0.0,98,0.00,,---,0.00,VWS V14.01,2013-10-29 09:09:00,
2013-10-29 05:14:00,54.0,53.4,28.14,North,0,0.0,0.0,98,0.00,,---,0.00,VWS V14.01,2013-10-29 09:14:00,
2013-10-29 05:19:00,54.0,53.4,28.14,North,0,0.0,0.0,98,0.00,,---,0.00,VWS V14.01,2013-10-29 09:19:00,
2013-10-29 05:24:00,54.1,53.6,28.14,North,0,0.0,0.0,98,0.00,,---,0.00,VWS V14.01,2013-10-29 09:24:00,
2013-10-29 05:29:00,54.0,53.4,28.14,North,0,0.0,0.0,98,0.00,,---,0.00,VWS V14.01,2013-10-29 09:29:00,
2013-10-29 05:34:00,54.0,53.4,28.14,North,0,0.0,0.0,98,0.00,,---,0.00,VWS V14.01,2013-10-29 09:34:00,
2013-10-29 05:39:00,54.0,53.4,28.14,North,0,0.0,0.0,98,0.00,,---,0.00,VWS V14.01,2013-10-29 09:39:00,
2013-10-29 05:44:00,54.1,53.6,28.14,North,0,0.0,0.0,98,0.00,,---,0.00,VWS V14.01,2013-10-29 09:44:00,
2013-10-29 05:49:00,54.1,53.6,28.14,North,0,0.0,0.0,98,0.00,,---,0.00,VWS V14.01,2013-10-29 09:49:00,
2013-10-29 05:54:00,54.1,53.6,28.14,North,0,0.0,0.0,98,0.00,,---,0.00,VWS V14.01,2013-10-29 09:54:00,
2013-10-29 05:59:00,54.0,53.4,28.14,North,0,0.0,0.0,98,0.00,,---,0.00,VWS V14.01,2013-10-29 09:59:00,
2013-10-29 06:04:00,53.8,53.2,28.14,North,0,0.0,0.0,98,0.00,,---,0.00,VWS V14.01,2013-10-29 10:04:00,
2013-10-29 06:09:00,53.6,52.8,28.14,North,0,0.0,0.0,97,0.00,,---,0.00,VWS V14.01,2013-10-29 10:09:00,
2013-10-29 06:14:00,53.4,52.9,28.14,North,0,0.0,0.0,98,0.00,,---,0.00,VWS V14.01,2013-10-29 10:14:00,
2013-10-29 06:19:00,53.4,52.9,28.14,North,0,0.0,0.0,98,0.00,,---,0.00,VWS V14.01,2013-10-29 10:19:00,
2013-10-29 06:24:00,53.4,52.9,28.14,North,0,0.0,0.0,98,0.00,,---,0.00,VWS V14.01,2013-10-29 10:24:00,
2013-10-29 06:29:00,53.4,52.9,28.14,North,0,0.0,0.0,98,0.00,,---,0.00,VWS V14.01,2013-10-29 10:29:00,
2013-10-29 06:34:00,53.4,52.9,28.14,North,0,0.0,0.0,98,0.00,,---,0.00,VWS V14.01,2013-10-29 10:34:00,
2013-10-29 06:39:00,53.4,52.9,28.14,North,0,0.0,0.0,98,0.00,,---,0.00,VWS V14.01,2013-10-29 10:39:00,
2013-10-29 06:44:00,53.4,52.9,28.14,North,0,0.0,0.0,98,0.00,,---,0.00,VWS V14.01,2013-10-29 10:44:00,
2013-10-29 06:49:00,53.4,52.9,28.14,North,0,0.0,0.0,98,0.00,,---,0.00,VWS V14.01,2013-10-29 10:49:00,
2013-10-29 06:54:00,53.6,53.0,28.14,North,0,0.0,0.0,98,0.00,,---,0.00,VWS V14.01,2013-10-29 10:54:00,
2013-10-29 07:00:00,53.6,53.0,28.14,North,0,0.0,0.0,98,0.00,,---,0.00,VWS V14.01,2013-10-29 11:00:00,
2013-10-29 07:05:00,53.6,53.0,28.14,North,0,0.0,0.0,98,0.00,,---,0.00,VWS V14.01,2013-10-29 11:05:00,
2013-10-29 07:10:00,53.6,53.0,28.14,North,0,0.0,0.0,98,0.00,,---,0.00,VWS V14.01,2013-10-29 11:10:00,
2013-10-29 07:15:00,53.6,53.0,28.14,North,0,0.0,0.0,98,0.00,,---,0.00,VWS V14.01,2013-10-29 11:15:00,
2013-10-29 07:20:00,53.6,53.0,28.14,North,0,0.0,0.0,98,0.00,,---,0.00,VWS V14.01,2013-10-29 11:20:00,
2013-10-29 07:25:00,53.6,53.0,28.14,North,0,0.0,0.0,98,0.00,,---,0.00,VWS V14.01,2013-10-29 11:25:00,
2013-10-29 07:30:00,53.6,53.0,28.14,North,0,0.0,0.0,98,0.00,,---,0.00,VWS V14.01,2013-10-29 11:30:00,
2013-10-29 07:35:00,53.6,53.0,28.14,North,0,0.0,0.0,98,0.00,,---,0.00,VWS V14.01,2013-10-29 11:35:00,
2013-10-29 07:40:00,53.6,53.0,28.14,North,0,0.0,0.0,98,0.00,,---,0.00,VWS V14.01,2013-10-29 11:40:00,
2013-10-29 07:45:00,53.6,53.0,28.14,North,0,0.0,0.0,98,0.00,,---,0.00,VWS V14.01,2013-10-29 11:45:00,
2013-10-29 07:50:00,53.6,53.0,28.14,North,0,0.0,0.0,98,0.00,,---,0.00,VWS V14.01,2013-10-29 11:50:00,
2013-10-29 07:55:00,53.4,52.9,28.14,North,0,0.0,0.0,98,0.00,,---,0.00,VWS V14.01,2013-10-29 11:55:00,
2013-10-29 08:00:00,53.4,52.9,28.14,North,0,0.0,0.0,98,0.00,,---,0.00,VWS V14.01,2013-10-29 12:00:00,
2013-10-29 08:05:00,53.4,52.9,28.17,North,0,0.0,0.0,98,0.00,,---,0.00,VWS V14.01,2013-10-29 12:05:00,
2013-10-29 08:10:00,53.4,52.9,28.17,North,0,0.0,0.0,98,0.00,,---,0.00,VWS V14.01,2013-10-29 12:10:00,
2013-10-29 08:15:00,53.4,52.9,28.17,North,0,0.0,0.0,98,0.00,,---,0.00,VWS V14.01,2013-10-29 12:15:00,
2013-10-29 08:20:00,53.6,53.0,28.17,North,0,0.0,0.0,98,0.00,,---,0.00,VWS V14.01,2013-10-29 12:20:00,
2013-10-29 08:25:00,53.6,53.0,28.17,North,0,0.0,0.0,98,0.00,,---,0.00,VWS V14.01,2013-10-29 12:25:00,
2013-10-29 08:30:00,53.6,53.0,28.17,North,0,0.0,0.0,98,0.00,,---,0.00,VWS V14.01,2013-10-29 12:30:00,
2013-10-29 08:35:00,53.8,53.2,28.17,North,0,0.0,0.0,98,0.00,,---,0.00,VWS V14.01,2013-10-29 12:35:00,
2013-10-29 08:40:00,53.8,53.2,28.17,North,0,0.0,0.0,98,0.00,,---,0.00,VWS V14.01,2013-10-29 12:40:00,
2013-10-29 08:45:00,54.0,53.4,28.17,North,0,0.0,0.0,98,0.00,,---,0.00,VWS V14.01,2013-10-29 12:45:00,
2013-10-29 08:50:00,54.0,53.4,28.17,North,0,0.0,0.0,98,0.00,,---,0.00,VWS V14.01,2013-10-29 12:50:00,
2013-10-29 08:55:00,54.1,53.6,28.17,North,0,0.0,0.0,98,0.00,,---,0.00,VWS V14.01,2013-10-29 12:55:00,
2013-10-29 09:01:00,54.3,53.8,28.17,North,0,0.0,0.0,98,0.00,,---,0.00,VWS V14.01,2013-10-29 13:01:00,
2013-10-29 09:06:00,54.5,54.0,28.17,North,0,0.0,0.0,98,0.00,,---,0.00,VWS V14.01,2013-10-29 13:06:00,
2013-10-29 09:11:00,54.5,54.0,28.17,North,0,0.0,0.0,98,0.00,,---,0.00,VWS V14.01,2013-10-29 13:11:00,
2013-10-29 09:16:00,54.7,54.1,28.17,North,0,0.0,0.0,98,0.00,,---,0.00,VWS V14.01,2013-10-29 13:16:00,
2013-10-29 09:21:00,54.9,54.3,28.17,North,0,0.0,0.0,98,0.00,,---,0.00,VWS V14.01,2013-10-29 13:21:00,
2013-10-29 09:26:00,55.0,54.5,28.17,North,0,0.0,0.0,98,0.00,,---,0.00,VWS V14.01,2013-10-29 13:26:00,
2013-10-29 09:31:00,55.0,54.5,28.17,North,0,0.0,0.0,98,0.00,,---,0.00,VWS V14.01,2013-10-29 13:31:00,
2013-10-29 09:36:00,55.0,54.5,28.17,North,0,0.0,0.0,98,0.00,,---,0.00,VWS V14.01,2013-10-29 13:36:00,
2013-10-29 09:41:00,55.2,54.7,28.17,North,0,0.0,0.0,98,0.00,,---,0.00,VWS V14.01,2013-10-29 13:41:00,
2013-10-29 09:46:00,55.2,54.7,28.17,North,0,0.0,0.0,98,0.00,,---,0.00,VWS V14.01,2013-10-29 13:46:00,
2013-10-29 09:51:00,55.2,54.7,28.17,North,0,0.0,0.0,98,0.00,,---,0.00,VWS V14.01,2013-10-29 13:51:00,
2013-10-29 09:56:00,55.4,54.8,28.17,North,0,0.0,0.0,98,0.00,,---,0.00,VWS V14.01,2013-10-29 13:56:00,
2013-10-29 10:01:00,55.6,55.0,28.17,North,0,0.0,0.0,98,0.00,,---,0.00,VWS V14.01,2013-10-29 14:01:00,
2013-10-29 10:06:00,55.8,55.2,28.17,North,0,0.0,0.0,98,0.00,,---,0.00,VWS V14.01,2013-10-29 14:06:00,
2013-10-29 10:11:00,55.9,55.4,28.17,North,0,0.0,0.0,98,0.00,,---,0.00,VWS V14.01,2013-10-29 14:11:00,
2013-10-29 10:16:00,56.3,55.8,28.17,North,0,0.0,0.0,98,0.00,,---,0.00,VWS V14.01,2013-10-29 14:16:00,
2013-10-29 10:21:00,56.5,55.9,28.17,North,0,0.0,0.0,98,0.00,,---,0.00,VWS V14.01,2013-10-29 14:21:00,
2013-10-29 10:26:00,56.7,56.1,28.17,North,0,0.0,0.0,98,0.00,,---,0.00,VWS V14.01,2013-10-29 14:26:00,
2013-10-29 10:31:00,56.8,56.0,28.17,North,0,0.0,0.0,97,0.00,,---,0.00,VWS V14.01,2013-10-29 14:31:00,
2013-10-29 10:36:00,57.0,56.2,28.17,North,0,0.0,0.0,97,0.00,,---,0.00,VWS V14.01,2013-10-29 14:36:00,
2013-10-29 10:41:00,57.2,56.4,28.17,North,0,0.0,0.0,97,0.00,,---,0.00,VWS V14.01,2013-10-29 14:41:00,
2013-10-29 10:46:00,57.2,56.4,28.17,North,0,0.0,0.0,97,0.00,,---,0.00,VWS V14.01,2013-10-29 14:46:00,
2013-10-29 10:52:00,57.6,56.7,28.17,North,0,0.0,0.0,97,0.00,,---,0.00,VWS V14.01,2013-10-29 14:52:00,
2013-10-29 10:57:00,57.9,57.1,28.17,North,0,0.0,0.0,97,0.00,,---,0.00,VWS V14.01,2013-10-29 14:57:00,
2013-10-29 11:02:00,58.5,57.3,28.17,North,0,0.0,0.0,96,0.00,,---,0.00,VWS V14.01,2013-10-29 15:02:00,
2013-10-29 11:07:00,58.8,57.7,28.17,North,0,0.0,0.0,96,0.00,,---,0.00,VWS V14.01,2013-10-29 15:07:00,
2013-10-29 11:12:00,59.2,57.8,28.17,North,0,0.0,0.0,95,0.00,,---,0.00,VWS V14.01,2013-10-29 15:12:00,
2013-10-29 11:17:00,59.4,57.6,28.17,North,0,0.0,0.0,94,0.00,,---,0.00,VWS V14.01,2013-10-29 15:17:00,
2013-10-29 11:22:00,59.7,58.0,28.20,North,0,0.0,0.0,94,0.00,,---,0.00,VWS V14.01,2013-10-29 15:22:00,
2013-10-29 11:27:00,59.7,57.7,28.20,North,0,0.0,0.0,93,0.00,,---,0.00,VWS V14.01,2013-10-29 15:27:00,
2013-10-29 11:32:00,59.5,57.2,28.20,North,0,0.0,0.0,92,0.00,,---,0.00,VWS V14.01,2013-10-29 15:32:00,
2013-10-29 11:37:00,59.5,57.2,28.17,North,0,0.0,0.0,92,0.00,,---,0.00,VWS V14.01,2013-10-29 15:37:00,
2013-10-29 11:42:00,59.4,56.7,28.17,North,0,0.0,0.0,91,0.00,,---,0.00,VWS V14.01,2013-10-29 15:42:00,
2013-10-29 11:47:00,59.0,56.4,28.17,North,0,0.0,0.0,91,0.00,,---,0.00,VWS V14.01,2013-10-29 15:47:00,
2013-10-29 11:52:00,59.0,56.4,28.17,North,0,0.0,0.0,91,0.00,,---,0.00,VWS V14.01,2013-10-29 15:52:00,
2013-10-29 11:57:00,59.2,56.6,28.17,North,0,0.0,0.0,91,0.00,,---,0.00,VWS V14.01,2013-10-29 15:57:00,
2013-10-29 12:02:00,59.4,56.7,28.17,North,0,0.0,0.0,91,0.00,,---,0.00,VWS V14.01,2013-10-29 16:02:00,
2013-10-29 12:07:00,59.4,56.7,28.17,North,0,0.0,0.0,91,0.00,,---,0.00,VWS V14.01,2013-10-29 16:07:00,
2013-10-29 12:12:00,59.5,56.9,28.17,North,0,0.0,0.0,91,0.00,,---,0.00,VWS V14.01,2013-10-29 16:12:00,
2013-10-29 12:17:00,59.9,57.3,28.17,North,0,0.0,0.0,91,0.00,,---,0.00,VWS V14.01,2013-10-29 16:17:00,
2013-10-29 12:23:00,60.3,57.3,28.17,North,0,0.0,0.0,90,0.00,,---,0.00,VWS V14.01,2013-10-29 16:23:00,
2013-10-29 12:28:00,60.3,57.3,28.17,North,0,0.0,0.0,90,0.00,,---,0.00,VWS V14.01,2013-10-29 16:28:00,
2013-10-29 12:33:00,60.3,56.4,28.17,North,0,0.0,0.0,87,0.00,,---,0.00,VWS V14.01,2013-10-29 16:33:00,
2013-10-29 12:38:00,60.1,56.2,28.17,North,0,0.0,0.0,87,0.00,,---,0.00,VWS V14.01,2013-10-29 16:38:00,
2013-10-29 12:43:00,60.6,56.7,28.17,North,0,0.0,0.0,87,0.00,,---,0.00,VWS V14.01,2013-10-29 16:43:00,
2013-10-29 12:48:00,61.0,55.8,28.17,North,0,0.0,0.0,83,0.00,,---,0.00,VWS V14.01,2013-10-29 16:48:00,
2013-10-29 12:53:00,61.3,56.1,28.17,North,0,0.0,0.0,83,0.00,,---,0.00,VWS V14.01,2013-10-29 16:53:00,
2013-10-29 12:58:00,61.5,56.3,28.17,North,0,0.0,0.0,83,0.00,,---,0.00,VWS V14.01,2013-10-29 16:58:00,
2013-10-29 13:03:00,61.7,56.2,28.17,North,0,0.0,0.0,82,0.00,,---,0.00,VWS V14.01,2013-10-29 17:03:00,
2013-10-29 13:08:00,61.9,56.3,28.17,North,0,0.0,0.0,82,0.00,,---,0.00,VWS V14.01,2013-10-29 17:08:00,
2013-10-29 13:13:00,62.4,56.2,28.17,North,0,0.0,0.0,80,0.00,,---,0.00,VWS V14.01,2013-10-29 17:13:00,
2013-10-29 13:18:00,62.2,56.0,28.17,North,0,0.0,0.0,80,0.00,,---,0.00,VWS V14.01,2013-10-29 17:18:00,
2013-10-29 13:23:00,62.4,56.2,28.17,North,0,0.0,0.0,80,0.00,,---,0.00,VWS V14.01,2013-10-29 17:23:00,
2013-10-29 13:28:00,62.6,55.7,28.17,North,0,0.0,0.0,78,0.00,,---,0.00,VWS V14.01,2013-10-29 17:28:00,
2013-10-29 13:33:00,62.6,55.7,28.17,North,0,0.0,0.0,78,0.00,,---,0.00,VWS V14.01,2013-10-29 17:33:00,
2013-10-29 13:38:00,62.6,55.7,28.17,North,0,0.0,0.0,78,0.00,,---,0.00,VWS V14.01,2013-10-29 17:38:00,
2013-10-29 13:43:00,62.6,54.9,28.17,North,0,0.0,0.0,76,0.00,,---,0.00,VWS V14.01,2013-10-29 17:43:00,
2013-10-29 13:48:00,62.6,55.3,28.17,North,0,0.0,0.0,77,0.00,,---,0.00,VWS V14.01,2013-10-29 17:48:00,
2013-10-29 13:53:00,62.6,54.9,28.14,North,0,0.0,0.0,76,0.00,,---,0.00,VWS V14.01,2013-10-29 17:53:00,
2013-10-29 13:58:00,62.8,55.5,28.14,North,0,0.0,0.0,77,0.00,,---,0.00,VWS V14.01,2013-10-29 17:58:00,
2013-10-29 14:03:00,63.3,56.3,28.14,North,0,0.0,0.0,78,0.00,,---,0.00,VWS V14.01,2013-10-29 18:03:00,
2013-10-29 14:08:00,63.7,56.0,28.14,North,0,0.0,0.0,76,0.00,,---,0.00,VWS V14.01,2013-10-29 18:08:00,
2013-10-29 14:13:00,63.7,55.6,28.14,North,0,0.0,0.0,75,0.00,,---,0.00,VWS V14.01,2013-10-29 18:13:00,
2013-10-29 14:18:00,63.9,56.2,28.14,North,0,0.0,0.0,76,0.00,,---,0.00,VWS V14.01,2013-10-29 18:18:00,
2013-10-29 14:23:00,64.0,56.0,28.11,North,0,0.0,0.0,75,0.00,,---,0.00,VWS V14.01,2013-10-29 18:23:00,
2013-10-29 14:28:00,63.9,55.8,28.11,North,0,0.0,0.0,75,0.00,,---,0.00,VWS V14.01,2013-10-29 18:28:00,
2013-10-29 14:33:00,63.5,55.8,28.11,North,0,0.0,0.0,76,0.00,,---,0.00,VWS V14.01,2013-10-29 18:33:00,
2013-10-29 14:38:00,63.3,55.3,28.11,North,0,0.0,0.0,75,0.00,,---,0.00,VWS V14.01,2013-10-29 18:38:00,
2013-10-29 14:43:00,63.1,55.8,28.11,North,0,0.0,0.0,77,0.00,,---,0.00,VWS V14.01,2013-10-29 18:43:00,
2013-10-29 14:48:00,63.0,55.7,28.11,North,0,0.0,0.0,77,0.00,,---,0.00,VWS V14.01,2013-10-29 18:48:00,
2013-10-29 14:53:00,63.1,56.2,28.11,North,0,0.0,0.0,78,0.00,,---,0.00,VWS V14.01,2013-10-29 18:53:00,
2013-10-29 14:58:00,63.5,56.2,28.11,North,0,0.0,0.0,77,0.00,,---,0.00,VWS V14.01,2013-10-29 18:58:00,
2013-10-29 15:03:00,63.5,56.2,28.11,North,0,0.0,0.0,77,0.00,,---,0.00,VWS V14.01,2013-10-29 19:03:00,
2013-10-29 15:08:00,63.9,56.5,28.11,North,0,0.0,0.0,77,0.00,,---,0.00,VWS V14.01,2013-10-29 19:08:00,
2013-10-29 15:13:00,64.0,56.3,28.11,North,0,0.0,0.0,76,0.00,,---,0.00,VWS V14.01,2013-10-29 19:13:00,
2013-10-29 15:18:00,63.5,55.4,28.11,North,0,0.0,0.0,75,0.00,,---,0.00,VWS V14.01,2013-10-29 19:18:00,
2013-10-29 15:23:00,63.1,55.1,28.14,North,0,0.0,0.0,75,0.00,,---,0.00,VWS V14.01,2013-10-29 19:23:00,
2013-10-29 15:28:00,63.1,55.5,28.14,North,0,0.0,0.0,76,0.00,,---,0.00,VWS V14.01,2013-10-29 19:28:00,
2013-10-29 15:33:00,63.1,55.8,28.14,North,0,0.0,0.0,77,0.00,,---,0.00,VWS V14.01,2013-10-29 19:33:00,
2013-10-29 15:38:00,63.1,55.8,28.14,North,0,0.0,0.0,77,0.00,,---,0.00,VWS V14.01,2013-10-29 19:38:00,
2013-10-29 15:43:00,63.1,56.2,28.14,North,0,0.0,0.0,78,0.00,,---,0.00,VWS V14.01,2013-10-29 19:43:00,
2013-10-29 15:48:00,63.1,55.8,28.14,North,0,0.0,0.0,77,0.00,,---,0.00,VWS V14.01,2013-10-29 19:48:00,
2013-10-29 15:53:00,63.0,56.0,28.11,North,0,0.0,0.0,78,0.00,,---,0.00,VWS V14.01,2013-10-29 19:53:00,
2013-10-29 15:58:00,63.0,56.0,28.11,North,0,0.0,0.0,78,0.00,,---,0.00,VWS V14.01,2013-10-29 19:58:00,
2013-10-29 16:03:00,63.0,56.0,28.11,North,0,0.0,0.0,78,0.00,,---,0.00,VWS V14.01,2013-10-29 20:03:00,
2013-10-29 16:08:00,63.0,56.0,28.14,North,0,0.0,0.0,78,0.00,,---,0.00,VWS V14.01,2013-10-29 20:08:00,
2013-10-29 16:13:00,63.1,56.5,28.14,North,0,0.0,0.0,79,0.00,,---,0.00,VWS V14.01,2013-10-29 20:13:00,
2013-10-29 16:18:00,63.7,56.7,28.14,North,0,0.0,0.0,78,0.00,,---,0.00,VWS V14.01,2013-10-29 20:18:00,
2013-10-29 16:24:00,64.0,56.7,28.11,North,0,0.0,0.0,77,0.00,,---,0.00,VWS V14.01,2013-10-29 20:24:00,
2013-10-29 16:29:00,64.2,56.9,28.11,North,0,0.0,0.0,77,0.00,,---,0.00,VWS V14.01,2013-10-29 20:29:00,
2013-10-29 16:34:00,64.4,56.7,28.11,North,0,0.0,0.0,76,0.00,,---,0.00,VWS V14.01,2013-10-29 20:34:00,
2013-10-29 16:39:00,64.9,56.8,28.11,North,0,0.0,0.0,75,0.00,,---,0.00,VWS V14.01,2013-10-29 20:39:00,
2013-10-29 16:44:00,64.8,56.3,28.11,North,0,0.0,0.0,74,0.00,,---,0.00,VWS V14.01,2013-10-29 20:44:00,
2013-10-29 16:49:00,64.9,56.5,28.11,North,0,0.0,0.0,74,0.00,,---,0.00,VWS V14.01,2013-10-29 20:49:00,
2013-10-29 16:54:00,65.1,56.6,28.11,North,0,0.0,0.0,74,0.00,,---,0.00,VWS V14.01,2013-10-29 20:54:00,
2013-10-29 16:59:00,65.1,56.3,28.11,North,0,0.0,0.0,73,0.00,,---,0.00,VWS V14.01,2013-10-29 20:59:00,
2013-10-29 17:04:00,65.1,56.3,28.11,North,0,0.0,0.0,73,0.00,,---,0.00,VWS V14.01,2013-10-29 21:04:00,
2013-10-29 17:09:00,64.9,56.1,28.11,North,0,0.0,0.0,73,0.00,,---,0.00,VWS V14.01,2013-10-29 21:09:00,
2013-10-29 17:14:00,64.8,56.3,28.11,North,0,0.0,0.0,74,0.00,,---,0.00,VWS V14.01,2013-10-29 21:14:00,
2013-10-29 17:19:00,64.6,56.5,28.11,North,0,0.0,0.0,75,0.00,,---,0.00,VWS V14.01,2013-10-29 21:19:00,
2013-10-29 17:24:00,64.6,56.5,28.11,North,0,0.0,0.0,75,0.00,,---,0.00,VWS V14.01,2013-10-29 21:24:00,
2013-10-29 17:29:00,64.4,56.3,28.11,North,0,0.0,0.0,75,0.00,,---,0.00,VWS V14.01,2013-10-29 21:29:00,
2013-10-29 17:34:00,64.4,56.3,28.11,North,0,0.0,0.0,75,0.00,,---,0.00,VWS V14.01,2013-10-29 21:34:00,
2013-10-29 17:39:00,64.2,56.5,28.11,ESE,112,0.0,0.0,76,0.00,,---,0.00,VWS V14.01,2013-10-29 21:39:00,
2013-10-29 17:44:00,64.2,56.5,28.11,ESE,112,0.0,0.0,76,0.00,,---,0.00,VWS V14.01,2013-10-29 21:44:00,
2013-10-29 17:49:00,63.9,56.2,28.11,ESE,112,0.0,0.0,76,0.00,,---,0.00,VWS V14.01,2013-10-29 21:49:00,
2013-10-29 17:54:00,63.7,56.7,28.11,ESE,112,0.0,0.0,78,0.00,,---,0.00,VWS V14.01,2013-10-29 21:54:00,
2013-10-29 17:59:00,63.5,56.5,28.11,ESE,112,0.0,0.0,78,0.00,,---,0.00,VWS V14.01,2013-10-29 21:59:00,
2013-10-29 18:04:00,63.3,56.3,28.11,ESE,112,0.0,0.0,78,0.00,,---,0.00,VWS V14.01,2013-10-29 22:04:00,
2013-10-29 18:09:00,63.1,56.2,28.11,ESE,112,0.0,0.0,78,0.00,,---,0.00,VWS V14.01,2013-10-29 22:09:00,
2013-10-29 18:15:00,63.0,56.3,28.11,ESE,112,0.0,0.0,79,0.00,,---,0.00,VWS V14.01,2013-10-29 22:15:00,
2013-10-29 18:20:00,62.8,56.2,28.11,ESE,112,0.0,0.0,79,0.00,,---,0.00,VWS V14.01,2013-10-29 22:20:00,
2013-10-29 18:25:00,62.6,56.0,28.11,ESE,112,0.0,0.0,79,0.00,,---,0.00,VWS V14.01,2013-10-29 22:25:00,
2013-10-29 18:30:00,62.2,56.3,28.11,ESE,112,0.0,0.0,81,0.00,,---,0.00,VWS V14.01,2013-10-29 22:30:00,
2013-10-29 18:35:00,62.1,56.2,28.11,ESE,112,0.0,0.0,81,0.00,,---,0.00,VWS V14.01,2013-10-29 22:35:00,
2013-10-29 18:40:00,61.7,55.8,28.11,ESE,112,0.0,0.0,81,0.00,,---,0.00,VWS V14.01,2013-10-29 22:40:00,
2013-10-29 18:45:00,61.2,55.6,28.11,ESE,112,0.0,0.0,82,0.00,,---,0.00,VWS V14.01,2013-10-29 22:45:00,
2013-10-29 18:50:00,61.0,55.8,28.11,ESE,112,0.0,0.0,83,0.00,,---,0.00,VWS V14.01,2013-10-29 22:50:00,
2013-10-29 18:55:00,60.6,55.4,28.11,ESE,112,0.0,0.0,83,0.00,,---,0.00,VWS V14.01,2013-10-29 22:55:00,
2013-10-29 19:00:00,60.3,55.4,28.11,ESE,112,0.0,0.0,84,0.00,,---,0.00,VWS V14.01,2013-10-29 23:00:00,
2013-10-29 19:05:00,59.9,55.1,28.11,ESE,112,0.0,0.0,84,0.00,,---,0.00,VWS V14.01,2013-10-29 23:05:00,
2013-10-29 19:10:00,59.7,55.2,28.11,ESE,112,0.0,0.0,85,0.00,,---,0.00,VWS V14.01,2013-10-29 23:10:00,
2013-10-29 19:15:00,59.4,55.2,28.11,ESE,112,0.0,0.0,86,0.00,,---,0.00,VWS V14.01,2013-10-29 23:15:00,
2013-10-29 19:20:00,59.2,55.0,28.11,ESE,112,0.0,0.0,86,0.00,,---,0.00,VWS V14.01,2013-10-29 23:20:00,
2013-10-29 19:25:00,59.0,54.8,28.11,ESE,112,0.0,0.0,86,0.00,,---,0.00,VWS V14.01,2013-10-29 23:25:00,
2013-10-29 19:30:00,58.8,55.0,28.11,ESE,112,0.0,0.0,87,0.00,,---,0.00,VWS V14.01,2013-10-29 23:30:00,
2013-10-29 19:35:00,58.5,54.9,28.11,ESE,112,0.0,0.0,88,0.00,,---,0.00,VWS V14.01,2013-10-29 23:35:00,
2013-10-29 19:40:00,58.5,54.9,28.11,ESE,112,0.0,0.0,88,0.00,,---,0.00,VWS V14.01,2013-10-29 23:40:00,
2013-10-29 19:45:00,58.5,54.9,28.11,ESE,112,0.0,0.0,88,0.00,,---,0.00,VWS V14.01,2013-10-29 23:45:00,
2013-10-29 19:50:00,58.1,54.9,28.11,ESE,112,0.0,0.0,89,0.00,,---,0.00,VWS V14.01,2013-10-29 23:50:00,
2013-10-29 19:55:00,58.1,55.2,28.11,ESE,112,0.0,0.0,90,0.00,,---,0.00,VWS V14.01,2013-10-29 23:55:00,
2013-10-29 20:00:00,58.1,55.5,28.11,ESE,112,0.0,0.0,91,0.00,,---,0.00,VWS V14.01,2013-10-30 00:00:00,
2013-10-29 20:05:00,58.3,55.7,28.11,ESE,112,0.0,0.0,91,0.00,,---,0.00,VWS V14.01,2013-10-30 00:05:00,
2013-10-29 20:10:00,58.3,55.7,28.11,ESE,112,0.0,0.0,91,0.00,,---,0.00,VWS V14.01,2013-10-30 00:10:00,
2013-10-29 20:15:00,58.3,55.7,28.11,ESE,112,0.0,0.0,91,0.00,,---,0.00,VWS V14.01,2013-10-30 00:15:00,
2013-10-29 20:21:00,58.1,55.5,28.11,ESE,112,0.0,0.0,91,0.00,,---,0.00,VWS V14.01,2013-10-30 00:21:00,
2013-10-29 20:26:00,58.1,55.5,28.11,ESE,112,0.0,0.0,91,0.00,,---,0.00,VWS V14.01,2013-10-30 00:26:00,
2013-10-29 20:31:00,58.1,55.5,28.11,ESE,112,0.0,0.0,91,0.00,,---,0.00,VWS V14.01,2013-10-30 00:31:00,
2013-10-29 20:36:00,57.9,55.3,28.11,ESE,112,0.0,0.0,91,0.00,,---,0.00,VWS V14.01,2013-10-30 00:36:00,
2013-10-29 20:41:00,57.9,55.3,28.11,ESE,112,0.0,0.0,91,0.00,,---,0.00,VWS V14.01,2013-10-30 00:41:00,
2013-10-29 20:46:00,57.9,55.3,28.11,ESE,112,0.0,0.0,91,0.00,,---,0.00,VWS V14.01,2013-10-30 00:46:00,
2013-10-29 20:51:00,57.7,55.1,28.11,ESE,112,0.0,0.0,91,0.00,,---,0.00,VWS V14.01,2013-10-30 00:51:00,
2013-10-29 20:56:00,57.7,55.4,28.11,ESE,112,0.0,0.0,92,0.00,,---,0.00,VWS V14.01,2013-10-30 00:56:00,
2013-10-29 21:01:00,57.9,55.6,28.11,ESE,112,0.0,0.0,92,0.00,,---,0.00,VWS V14.01,2013-10-30 01:01:00,
2013-10-29 21:06:00,57.9,55.6,28.11,ESE,112,0.0,0.0,92,0.00,,---,0.00,VWS V14.01,2013-10-30 01:06:00,
2013-10-29 21:11:00,57.9,55.6,28.11,ESE,112,0.0,0.0,92,0.00,,---,0.00,VWS V14.01,2013-10-30 01:11:00,
2013-10-29 21:16:00,57.9,55.6,28.11,ESE,112,0.0,0.0,92,0.00,,---,0.00,VWS V14.01,2013-10-30 01:16:00,
2013-10-29 21:21:00,58.1,55.8,28.11,ESE,112,0.0,0.0,92,0.00,,---,0.00,VWS V14.01,2013-10-30 01:21:00,
2013-10-29 21:26:00,58.1,55.8,28.11,ESE,112,0.0,0.0,92,0.00,,---,0.00,VWS V14.01,2013-10-30 01:26:00,
2013-10-29 21:31:00,58.3,56.0,28.11,ESE,112,0.0,0.0,92,0.00,,---,0.00,VWS V14.01,2013-10-30 01:31:00,
2013-10-29 21:36:00,58.3,56.0,28.11,ESE,112,0.0,0.0,92,0.00,,---,0.00,VWS V14.01,2013-10-30 01:36:00,
2013-10-29 21:41:00,58.3,56.0,28.11,ESE,112,0.0,0.0,92,0.00,,---,0.00,VWS V14.01,2013-10-30 01:41:00,
2013-10-29 21:46:00,58.3,56.0,28.11,ESE,112,0.0,0.0,92,0.00,,---,0.00,VWS V14.01,2013-10-30 01:46:00,
2013-10-29 21:51:00,58.3,56.0,28.11,ESE,112,0.0,0.0,92,0.00,,---,0.00,VWS V14.01,2013-10-30 01:51:00,
2013-10-29 21:56:00,58.5,56.2,28.11,ESE,112,0.0,0.0,92,0.00,,---,0.00,VWS V14.01,2013-10-30 01:56:00,
2013-10-29 22:01:00,58.5,56.2,28.11,ESE,112,0.0,0.0,92,0.00,,---,0.00,VWS V14.01,2013-10-30 02:01:00,
2013-10-29 22:06:00,58.3,56.0,28.11,ESE,112,0.0,0.0,92,0.00,,---,0.00,VWS V14.01,2013-10-30 02:06:00,
2013-10-29 22:12:00,58.3,56.0,28.11,ESE,112,0.0,0.0,92,0.00,,---,0.00,VWS V14.01,2013-10-30 02:12:00,
2013-10-29 22:17:00,58.3,56.0,28.11,ESE,112,0.0,0.0,92,0.00,,---,0.00,VWS V14.01,2013-10-30 02:17:00,
2013-10-29 22:22:00,58.1,56.1,28.14,ESE,112,0.0,0.0,93,0.00,,---,0.00,VWS V14.01,2013-10-30 02:22:00,
2013-10-29 22:27:00,58.1,56.1,28.14,ESE,112,0.0,0.0,93,0.00,,---,0.00,VWS V14.01,2013-10-30 02:27:00,
2013-10-29 22:32:00,58.1,56.1,28.14,ESE,112,0.0,0.0,93,0.00,,---,0.00,VWS V14.01,2013-10-30 02:32:00,
2013-10-29 22:37:00,58.1,56.1,28.11,ESE,112,0.0,0.0,93,0.00,,---,0.00,VWS V14.01,2013-10-30 02:37:00,
2013-10-29 22:42:00,58.1,56.1,28.11,ESE,112,0.0,0.0,93,0.00,,---,0.00,VWS V14.01,2013-10-30 02:42:00,
2013-10-29 22:47:00,58.1,56.1,28.11,ESE,112,0.0,0.0,93,0.00,,---,0.00,VWS V14.01,2013-10-30 02:47:00,
2013-10-29 22:52:00,58.1,56.1,28.11,ESE,112,0.0,0.0,93,0.00,,---,0.00,VWS V14.01,2013-10-30 02:52:00,
2013-10-29 22:57:00,58.1,56.1,28.11,ESE,112,0.0,0.0,93,0.00,,---,0.00,VWS V14.01,2013-10-30 02:57:00,
2013-10-29 23:02:00,58.3,56.3,28.11,ESE,112,0.0,0.0,93,0.00,,---,0.00,VWS V14.01,2013-10-30 03:02:00,
2013-10-29 23:07:00,58.3,56.3,28.11,ESE,112,0.0,0.0,93,0.00,,---,0.00,VWS V14.01,2013-10-30 03:07:00,
2013-10-29 23:12:00,58.5,56.5,28.11,ESE,112,0.0,0.0,93,0.00,,---,0.00,VWS V14.01,2013-10-30 03:12:00,
2013-10-29 23:17:00,58.5,56.5,28.11,ESE,112,0.0,0.0,93,0.00,,---,0.00,VWS V14.01,2013-10-30 03:17:00,
2013-10-29 23:22:00,58.3,56.3,28.14,ESE,112,0.0,0.0,93,0.00,,---,0.00,VWS V14.01,2013-10-30 03:22:00,
2013-10-29 23:27:00,58.3,56.3,28.14,ESE,112,0.0,0.0,93,0.00,,---,0.00,VWS V14.01,2013-10-30 03:27:00,
2013-10-29 23:32:00,58.3,56.3,28.14,ESE,112,0.0,0.0,93,0.00,,---,0.00,VWS V14.01,2013-10-30 03:32:00,
2013-10-29 23:37:00,58.3,56.3,28.14,ESE,112,0.0,0.0,93,0.00,,---,0.00,VWS V14.01,2013-10-30 03:37:00,
2013-10-29 23:42:00,58.3,56.3,28.14,ESE,112,0.0,0.0,93,0.00,,---,0.00,VWS V14.01,2013-10-30 03:42:00,
2013-10-29 23:47:00,58.3,56.3,28.14,ESE,112,0.0,0.0,93,0.00,,---,0.00,VWS V14.01,2013-10-30 03:47:00,
2013-10-29 23:52:00,58.3,56.3,28.14,ESE,112,0.0,0.0,93,0.00,,---,0.00,VWS V14.01,2013-10-30 03:52:00,
2013-10-29 23:58:00,58.3,56.3,28.14,ESE,112,0.0,0.0,93,0.00,,---,0.00,VWS V14.01,2013-10-30 03:58:00,